Weather at Emerald Plaza South Helipad

Public forecast

Using degrees Fahrenheit for public forecast. Weather courtesy of forecast.io.

Closest aviation weather report (METAR) to Emerald Plaza South Helipad

Closest report is San Diego International Airport, 1.6 nm (2.9 km) NW.

2024/07/21 07:43 (retrieved 11 minutes ago)

KSAN 210743Z 30003KT 10SM BKN008 BKN150 21/18 A2991 RMK AO2 T02060183

Closest aviation forecast (TAF) to Emerald Plaza South Helipad

Closest forecast is San Diego International Airport, 1.6 nm (2.9 km) NW.

2024/07/21 07:03 Ammendment (retrieved 51 minutes ago)

TAF AMD KSAN 210701Z 2107/2212 VRB03KT 6SM BR BKN006 FM210900 VRB03KT 3SM BR OVC004 FM211700 VRB04KT P6SM SCT009 FM211800 24009KT P6SM FEW012